createdAt,value
2019-05-19T00:00:12.368Z,44.12
2019-05-19T00:01:14.650Z,44.17
2019-05-19T00:02:16.924Z,44.08
2019-05-19T00:03:19.284Z,44.26
2019-05-19T00:04:21.866Z,44.1
2019-05-19T00:05:23.750Z,44.18
2019-05-19T00:06:26.025Z,44.1
2019-05-19T00:07:28.291Z,44.13
2019-05-19T00:08:30.561Z,44.17
2019-05-19T00:09:32.840Z,44.27
2019-05-19T00:10:35.103Z,44.18
2019-05-19T00:11:37.404Z,44.15
2019-05-19T00:12:39.668Z,44.13
2019-05-19T00:13:41.929Z,44.1
2019-05-19T00:14:44.251Z,44.12
2019-05-19T00:15:46.474Z,44.19
2019-05-19T00:16:48.767Z,44.29
2019-05-19T00:17:51.024Z,44.17
2019-05-19T00:18:53.357Z,44.22
2019-05-19T00:19:55.580Z,44.14
2019-05-19T00:20:57.849Z,44.15
2019-05-19T00:22:00.157Z,44.08
2019-05-19T00:23:02.408Z,44.14
2019-05-19T00:24:05.148Z,44.1
2019-05-19T00:25:07.003Z,44.22
2019-05-19T00:26:09.230Z,44.15
2019-05-19T00:27:11.491Z,44.26
2019-05-19T00:28:13.813Z,44.22
2019-05-19T00:29:16.134Z,44.1
2019-05-19T00:30:18.397Z,44.26
2019-05-19T00:31:20.581Z,44.36
2019-05-19T00:32:22.905Z,44.31
2019-05-19T00:33:25.122Z,44.35
2019-05-19T00:34:27.396Z,44.31
2019-05-19T00:35:29.694Z,44.45
2019-05-19T00:36:31.962Z,44.38
2019-05-19T00:37:34.230Z,44.55
2019-05-19T00:38:36.530Z,44.43
2019-05-19T00:39:40.369Z,44.54
2019-05-19T00:40:41.065Z,44.41
2019-05-19T00:41:43.335Z,44.53
2019-05-19T00:42:45.621Z,44.53
2019-05-19T00:43:47.903Z,44.45
2019-05-19T00:44:50.171Z,44.52
2019-05-19T00:45:52.505Z,44.43
2019-05-19T00:46:54.703Z,44.52
2019-05-19T00:47:56.964Z,44.54
2019-05-19T00:48:59.309Z,44.74
2019-05-19T00:50:01.519Z,44.54
2019-05-19T00:51:03.802Z,44.62
2019-05-19T00:52:06.145Z,44.67
2019-05-19T00:53:08.343Z,44.57
2019-05-19T00:54:10.612Z,44.57
2019-05-19T00:55:12.921Z,44.66
2019-05-19T00:56:15.164Z,44.71
2019-05-19T00:57:17.429Z,44.62
2019-05-19T00:58:19.708Z,44.66
2019-05-19T00:59:21.994Z,44.57
2019-05-19T01:00:24.297Z,44.49
2019-05-19T01:01:26.540Z,44.52
2019-05-19T01:02:28.809Z,44.64
2019-05-19T01:03:31.093Z,44.46
2019-05-19T01:04:33.373Z,44.62
2019-05-19T01:05:37.126Z,44.62
2019-05-19T01:06:37.973Z,44.57
2019-05-19T01:07:40.307Z,44.59
2019-05-19T01:08:42.468Z,44.69
2019-05-19T01:09:44.811Z,44.65
2019-05-19T01:10:47.026Z,44.43
2019-05-19T01:11:49.291Z,44.45
2019-05-19T01:12:51.745Z,44.57
2019-05-19T01:13:53.912Z,44.62
2019-05-19T01:14:56.097Z,44.58
2019-05-19T01:15:58.396Z,44.57
2019-05-19T01:17:00.648Z,44.67
2019-05-19T01:18:02.927Z,44.41
2019-05-19T01:19:05.233Z,44.66
2019-05-19T01:20:07.478Z,44.57
2019-05-19T01:21:09.822Z,44.6
2019-05-19T01:22:12.325Z,44.69
2019-05-19T01:23:14.289Z,44.66
2019-05-19T01:24:16.569Z,44.46
2019-05-19T01:25:18.846Z,44.52
2019-05-19T01:26:21.135Z,44.55
2019-05-19T01:27:23.387Z,44.74
2019-05-19T01:28:25.686Z,44.46
2019-05-19T01:29:27.941Z,44.52
2019-05-19T01:30:30.278Z,44.49
2019-05-19T01:31:32.486Z,44.57
2019-05-19T01:32:34.738Z,44.84
2019-05-19T01:33:37.032Z,44.59
2019-05-19T01:34:39.289Z,44.64
2019-05-19T01:35:41.566Z,44.6
2019-05-19T01:36:43.874Z,44.48
2019-05-19T01:37:46.108Z,44.53
2019-05-19T01:38:51.330Z,44.31
2019-05-19T01:39:50.698Z,44.5
2019-05-19T01:40:52.914Z,44.43
2019-05-19T01:41:55.189Z,44.43
2019-05-19T01:42:57.485Z,44.46
2019-05-19T01:43:59.879Z,44.41
2019-05-19T01:45:02.145Z,44.52
2019-05-19T01:46:04.374Z,44.53
2019-05-19T01:47:06.685Z,44.55
2019-05-19T01:48:08.896Z,44.5
2019-05-19T01:49:11.202Z,44.66
2019-05-19T01:50:13.408Z,44.4
2019-05-19T01:51:15.685Z,44.5
2019-05-19T01:52:17.923Z,44.57
2019-05-19T01:53:20.197Z,44.48
2019-05-19T01:54:22.468Z,44.74
2019-05-19T01:55:28.506Z,44.55
2019-05-19T01:56:27.012Z,44.69
2019-05-19T01:57:29.291Z,44.69
2019-05-19T01:58:31.563Z,44.53
2019-05-19T01:59:33.862Z,44.48
2019-05-19T02:00:36.102Z,44.52
2019-05-19T02:01:38.372Z,44.39
2019-05-19T02:02:40.746Z,44.7
2019-05-19T02:03:42.910Z,44.5
2019-05-19T02:04:45.195Z,44.55
2019-05-19T02:05:47.478Z,44.39
2019-05-19T02:06:54.216Z,44.45
2019-05-19T02:07:52.023Z,44.69
2019-05-19T02:08:54.304Z,44.53
2019-05-19T02:09:56.565Z,44.48
2019-05-19T02:10:58.844Z,44.5
2019-05-19T02:12:01.110Z,44.51
2019-05-19T02:13:03.383Z,44.39
2019-05-19T02:14:05.736Z,44.45
2019-05-19T02:15:07.965Z,44.56
2019-05-19T02:16:10.193Z,44.83
2019-05-19T02:17:12.468Z,44.46
2019-05-19T02:18:14.746Z,44.32
2019-05-19T02:19:17.015Z,44.5
2019-05-19T02:20:19.327Z,44.38
2019-05-19T02:21:21.613Z,44.29
2019-05-19T02:22:23.920Z,44.48
2019-05-19T02:23:26.140Z,44.43
2019-05-19T02:24:28.383Z,44.58
2019-05-19T02:25:30.641Z,44.41
2019-05-19T02:26:32.920Z,44.5
2019-05-19T02:27:35.203Z,44.37
2019-05-19T02:28:37.460Z,44.41
2019-05-19T02:29:39.730Z,44.38
2019-05-19T02:30:42.011Z,44.34
2019-05-19T02:31:44.326Z,44.53
2019-05-19T02:32:46.559Z,44.5
2019-05-19T02:33:48.844Z,44.39
2019-05-19T02:34:51.178Z,44.42
2019-05-19T02:35:53.457Z,44.37
2019-05-19T02:36:55.639Z,44.32
2019-05-19T02:37:57.987Z,44.41
2019-05-19T02:39:00.186Z,44.37
2019-05-19T02:40:02.463Z,44.48
2019-05-19T02:41:07.765Z,44.48
2019-05-19T02:42:07.004Z,44.27
2019-05-19T02:43:09.285Z,44.32
2019-05-19T02:44:11.555Z,44.62
2019-05-19T02:45:13.903Z,44.24
2019-05-19T02:46:19.768Z,44.36
2019-05-19T02:47:18.378Z,44.39
2019-05-19T02:48:20.645Z,44.39
2019-05-19T02:49:22.993Z,44.44
2019-05-19T02:50:25.180Z,44.51
2019-05-19T02:51:27.477Z,44.39
2019-05-19T02:52:29.727Z,44.51
2019-05-19T02:53:32.019Z,44.37
2019-05-19T02:54:34.289Z,44.39
2019-05-19T02:55:36.585Z,44.36
2019-05-19T02:56:38.824Z,44.42
2019-05-19T02:57:41.092Z,44.44
2019-05-19T02:58:43.359Z,44.49
2019-05-19T02:59:45.635Z,44.36
2019-05-19T03:00:48.954Z,44.3
2019-05-19T03:01:50.181Z,44.29
2019-05-19T03:02:52.456Z,44.37
2019-05-19T03:03:54.708Z,44.48
2019-05-19T03:04:57.014Z,44.65
2019-05-19T03:06:05.048Z,44.49
2019-05-19T03:07:01.587Z,44.27
2019-05-19T03:08:03.934Z,44.48
2019-05-19T03:09:06.101Z,44.36
2019-05-19T03:10:08.412Z,44.29
2019-05-19T03:11:10.659Z,44.42
2019-05-19T03:12:13.045Z,44.42
2019-05-19T03:13:15.196Z,44.39
2019-05-19T03:14:17.477Z,44.25
2019-05-19T03:15:19.738Z,44.32
2019-05-19T03:16:22.029Z,44.22
2019-05-19T03:17:24.282Z,44.34
2019-05-19T03:18:26.580Z,44.49
2019-05-19T03:19:28.828Z,44.36
2019-05-19T03:20:31.102Z,44.3
2019-05-19T03:21:33.373Z,44.42
2019-05-19T03:22:35.655Z,44.5
2019-05-19T03:23:37.909Z,44.49
2019-05-19T03:24:40.317Z,44.36
2019-05-19T03:25:42.469Z,44.46
2019-05-19T03:26:46.787Z,44.37
2019-05-19T03:27:47.004Z,44.55
2019-05-19T03:28:49.274Z,44.63
2019-05-19T03:29:51.608Z,44.54
2019-05-19T03:30:53.814Z,44.34
2019-05-19T03:31:56.716Z,44.51
2019-05-19T03:32:58.363Z,44.54
2019-05-19T03:34:00.654Z,44.58
2019-05-19T03:35:02.962Z,44.6
2019-05-19T03:36:05.182Z,44.65
2019-05-19T03:37:07.481Z,44.46
2019-05-19T03:38:09.719Z,44.39
2019-05-19T03:39:11.992Z,44.54
2019-05-19T03:40:14.282Z,44.39
2019-05-19T03:41:16.544Z,44.54
2019-05-19T03:42:18.821Z,44.46
2019-05-19T03:43:21.183Z,44.49
2019-05-19T03:44:23.380Z,44.41
2019-05-19T03:45:25.682Z,44.42
2019-05-19T03:46:27.910Z,44.54
2019-05-19T03:47:30.181Z,44.56
2019-05-19T03:48:32.460Z,44.53
2019-05-19T03:49:34.745Z,44.59
2019-05-19T03:50:37.020Z,44.37
2019-05-19T03:51:39.280Z,44.53
2019-05-19T03:52:41.538Z,44.48
2019-05-19T03:53:43.823Z,44.44
2019-05-19T03:54:46.092Z,44.44
2019-05-19T03:55:48.365Z,44.6
2019-05-19T03:56:50.654Z,44.61
2019-05-19T03:57:52.932Z,44.41
2019-05-19T03:58:55.177Z,44.51
2019-05-19T03:59:57.444Z,44.63
2019-05-19T04:00:59.737Z,44.58
2019-05-19T04:02:02.017Z,44.42
2019-05-19T04:03:04.279Z,44.51
2019-05-19T04:04:06.597Z,44.59
2019-05-19T04:05:08.835Z,44.68
2019-05-19T04:06:11.082Z,44.44
2019-05-19T04:07:13.368Z,44.63
2019-05-19T04:08:15.636Z,44.7
2019-05-19T04:09:17.983Z,44.56
2019-05-19T04:10:20.202Z,44.63
2019-05-19T04:11:22.480Z,44.58
2019-05-19T04:12:24.832Z,44.66
2019-05-19T04:13:27.011Z,44.58
2019-05-19T04:14:29.283Z,44.58
2019-05-19T04:15:31.649Z,44.79
2019-05-19T04:16:33.839Z,44.45
2019-05-19T04:17:36.109Z,44.59
2019-05-19T04:18:38.450Z,44.44
2019-05-19T04:19:40.646Z,44.65
2019-05-19T04:20:42.925Z,44.6
2019-05-19T04:21:45.199Z,44.59
2019-05-19T04:22:47.466Z,44.56
2019-05-19T04:23:49.735Z,44.54
2019-05-19T04:24:52.002Z,44.52
2019-05-19T04:25:54.288Z,44.44
2019-05-19T04:26:56.542Z,44.73
2019-05-19T04:27:58.830Z,44.49
2019-05-19T04:29:01.099Z,44.39
2019-05-19T04:30:03.516Z,44.39
2019-05-19T04:31:06.205Z,44.86
2019-05-19T04:32:07.943Z,44.66
2019-05-19T04:33:10.175Z,44.84
2019-05-19T04:34:12.450Z,44.68
2019-05-19T04:35:14.730Z,44.7
2019-05-19T04:36:20.923Z,44.77
2019-05-19T04:37:19.270Z,44.92
2019-05-19T04:38:23.585Z,44.84
2019-05-19T04:39:23.835Z,44.89
2019-05-19T04:40:26.109Z,44.97
2019-05-19T04:41:28.377Z,44.8
2019-05-19T04:42:30.947Z,44.82
2019-05-19T04:43:32.908Z,44.82
2019-05-19T04:44:35.175Z,44.96
2019-05-19T04:45:37.525Z,44.89
2019-05-19T04:46:39.737Z,45.03
2019-05-19T04:47:42.007Z,44.92
2019-05-19T04:48:44.302Z,44.91
2019-05-19T04:49:46.557Z,44.83
2019-05-19T04:50:52.445Z,44.92
2019-05-19T04:51:51.095Z,44.97
2019-05-19T04:52:53.378Z,44.89
2019-05-19T04:53:55.757Z,44.82
2019-05-19T04:55:01.507Z,44.87
2019-05-19T04:56:04.019Z,44.89
2019-05-19T04:57:02.465Z,44.91
2019-05-19T04:58:04.739Z,44.8
2019-05-19T04:59:07.011Z,44.81
2019-05-19T05:00:09.285Z,44.89
2019-05-19T05:01:16.953Z,44.87
2019-05-19T05:02:13.815Z,44.92
2019-05-19T05:03:16.086Z,44.83
2019-05-19T05:04:18.376Z,44.78
2019-05-19T05:05:20.629Z,44.96
2019-05-19T05:06:22.905Z,45.04
2019-05-19T05:07:25.178Z,44.89
2019-05-19T05:08:27.483Z,44.96
2019-05-19T05:09:29.730Z,45.08
2019-05-19T05:10:31.994Z,45.04
2019-05-19T05:11:34.263Z,44.94
2019-05-19T05:12:36.609Z,44.94
2019-05-19T05:13:38.850Z,44.96
2019-05-19T05:14:41.118Z,44.94
2019-05-19T05:15:43.462Z,45.06
2019-05-19T05:16:45.639Z,45.02
2019-05-19T05:17:47.923Z,44.87
2019-05-19T05:18:50.196Z,44.89
2019-05-19T05:19:52.455Z,44.77
2019-05-19T05:20:54.768Z,44.89
2019-05-19T05:21:57.002Z,45.02
2019-05-19T05:22:59.282Z,45.04
2019-05-19T05:24:01.549Z,44.9
2019-05-19T05:25:03.852Z,44.83
2019-05-19T05:26:06.167Z,44.76
2019-05-19T05:27:08.360Z,45.09
2019-05-19T05:28:10.635Z,44.92
2019-05-19T05:29:12.913Z,45.11
2019-05-19T05:30:15.179Z,44.9
2019-05-19T05:31:17.450Z,44.92
2019-05-19T05:32:19.803Z,44.97
2019-05-19T05:33:21.987Z,44.82
2019-05-19T05:34:24.304Z,44.7
2019-05-19T05:35:26.544Z,44.71
2019-05-19T05:36:28.811Z,44.78
2019-05-19T05:37:31.097Z,44.64
2019-05-19T05:38:33.356Z,44.71
2019-05-19T05:39:35.626Z,44.9
2019-05-19T05:40:37.939Z,44.8
2019-05-19T05:41:40.169Z,44.68
2019-05-19T05:42:42.459Z,44.73
2019-05-19T05:43:44.728Z,44.56
2019-05-19T05:44:46.981Z,44.62
2019-05-19T05:45:49.334Z,44.54
2019-05-19T05:46:51.612Z,44.8
2019-05-19T05:47:53.821Z,44.59
2019-05-19T05:48:56.091Z,44.66
2019-05-19T05:49:58.398Z,44.68
2019-05-19T05:51:00.633Z,44.51
2019-05-19T05:52:02.905Z,44.68
2019-05-19T05:53:05.258Z,44.52
2019-05-19T05:54:07.471Z,44.57
2019-05-19T05:55:09.741Z,44.54
2019-05-19T05:56:12.087Z,44.64
2019-05-19T05:57:14.261Z,44.75
2019-05-19T05:58:16.540Z,44.59
2019-05-19T05:59:18.811Z,44.68
2019-05-19T06:00:21.123Z,44.73
2019-05-19T06:01:23.369Z,44.76
2019-05-19T06:02:25.650Z,44.83
2019-05-19T06:03:27.902Z,44.76
2019-05-19T06:04:30.290Z,44.79
2019-05-19T06:05:32.561Z,44.61
2019-05-19T06:06:37.797Z,44.57
2019-05-19T06:07:37.037Z,44.68
2019-05-19T06:08:39.270Z,44.66
2019-05-19T06:09:41.543Z,44.66
2019-05-19T06:10:43.999Z,44.75
2019-05-19T06:11:46.090Z,44.56
2019-05-19T06:12:48.374Z,44.53
2019-05-19T06:13:50.669Z,44.57
2019-05-19T06:14:52.920Z,44.59
2019-05-19T06:15:55.241Z,44.68
2019-05-19T06:16:57.554Z,44.64
2019-05-19T06:17:59.761Z,44.73
2019-05-19T06:19:02.022Z,44.69
2019-05-19T06:20:04.382Z,44.56
2019-05-19T06:21:06.651Z,44.64
2019-05-19T06:22:08.820Z,44.49
2019-05-19T06:23:11.255Z,44.54
2019-05-19T06:24:13.367Z,44.42
2019-05-19T06:25:15.648Z,44.59
2019-05-19T06:26:17.922Z,44.35
2019-05-19T06:27:20.219Z,44.45
2019-05-19T06:28:22.571Z,44.35
2019-05-19T06:29:24.837Z,44.38
2019-05-19T06:30:27.006Z,44.32
2019-05-19T06:31:29.283Z,44.43
2019-05-19T06:32:32.421Z,44.28
2019-05-19T06:33:33.818Z,44.59
2019-05-19T06:34:36.099Z,44.42
2019-05-19T06:35:38.376Z,44.49
2019-05-19T06:36:40.682Z,44.38
2019-05-19T06:37:42.914Z,44.35
2019-05-19T06:38:45.315Z,44.26
2019-05-19T06:39:47.459Z,44.11
2019-05-19T06:40:49.748Z,44.26
2019-05-19T06:41:52.400Z,44.38
2019-05-19T06:42:54.288Z,44.4
2019-05-19T06:43:56.622Z,44.4
2019-05-19T06:44:58.918Z,44.31
2019-05-19T06:46:01.175Z,44.31
2019-05-19T06:47:03.369Z,44.36
2019-05-19T06:48:06.941Z,44.11
2019-05-19T06:49:08.003Z,43.99
2019-05-19T06:50:10.190Z,44.31
2019-05-19T06:51:12.467Z,44.24
2019-05-19T06:52:14.732Z,44.31
2019-05-19T06:53:17.011Z,44.31
2019-05-19T06:54:19.399Z,44.33
2019-05-19T06:55:21.756Z,44.4
2019-05-19T06:56:23.954Z,44.25
2019-05-19T06:57:26.226Z,44.2
2019-05-19T06:58:28.524Z,44.21
2019-05-19T06:59:30.760Z,44.12
2019-05-19T07:00:33.096Z,44.16
2019-05-19T07:01:35.304Z,44.17
2019-05-19T07:02:37.612Z,44.02
2019-05-19T07:03:42.494Z,44.16
2019-05-19T07:04:42.213Z,44.14
2019-05-19T07:05:44.412Z,44.14
2019-05-19T07:06:46.684Z,44.14
2019-05-19T07:07:48.948Z,44.14
2019-05-19T07:08:51.220Z,44.35
2019-05-19T07:09:53.605Z,44.47
2019-05-19T07:10:55.751Z,44.28
2019-05-19T07:11:58.023Z,44.35
2019-05-19T07:13:00.292Z,44.3
2019-05-19T07:14:02.590Z,44.16
2019-05-19T07:15:04.851Z,44.3
2019-05-19T07:16:07.122Z,44.26
2019-05-19T07:17:09.401Z,44.31
2019-05-19T07:18:11.669Z,44.23
2019-05-19T07:19:13.982Z,44.12
2019-05-19T07:20:19.425Z,44.24
2019-05-19T07:21:18.590Z,44.14
2019-05-19T07:22:20.759Z,44.2
2019-05-19T07:23:23.122Z,44.33
2019-05-19T07:24:25.308Z,44.31
2019-05-19T07:25:27.585Z,44.37
2019-05-19T07:26:29.847Z,44.37
2019-05-19T07:27:32.127Z,44.16
2019-05-19T07:28:34.397Z,44.06
2019-05-19T07:29:36.708Z,44.08
2019-05-19T07:30:38.946Z,44.2
2019-05-19T07:31:41.218Z,44.16
2019-05-19T07:32:43.560Z,44.11
2019-05-19T07:33:45.801Z,44.02
2019-05-19T07:34:48.051Z,44
2019-05-19T07:35:50.309Z,44.2
2019-05-19T07:36:52.601Z,44.26
2019-05-19T07:37:54.865Z,44.26
2019-05-19T07:38:57.113Z,44.12
2019-05-19T07:39:59.404Z,44.12
2019-05-19T07:41:01.667Z,44.09
2019-05-19T07:42:03.971Z,44.09
2019-05-19T07:43:06.215Z,44.09
2019-05-19T07:44:08.478Z,43.99
2019-05-19T07:45:10.757Z,44.23
2019-05-19T07:46:13.027Z,44.18
2019-05-19T07:47:15.315Z,44.28
2019-05-19T07:48:17.580Z,44.3
2019-05-19T07:49:19.854Z,44.58
2019-05-19T07:50:22.130Z,44.26
2019-05-19T07:51:24.503Z,44.28
2019-05-19T07:52:26.670Z,44.23
2019-05-19T07:53:28.961Z,44.16
2019-05-19T07:54:31.242Z,44.11
2019-05-19T07:55:33.583Z,43.64
2019-05-19T07:56:35.855Z,43.77
2019-05-19T07:57:38.029Z,43.7
2019-05-19T07:58:40.314Z,44.52
2019-05-19T07:59:42.583Z,43.93
2019-05-19T08:00:44.856Z,44.16
2019-05-19T08:01:47.135Z,43.61
2019-05-19T08:02:49.421Z,43.39
2019-05-19T08:03:51.738Z,43.67
2019-05-19T08:04:54.014Z,43.36
2019-05-19T08:05:56.214Z,43.58
2019-05-19T08:06:58.497Z,43.61
2019-05-19T08:08:00.757Z,43.79
2019-05-19T08:09:03.032Z,43.48
2019-05-19T08:10:05.305Z,43.51
2019-05-19T08:11:07.597Z,43.61
2019-05-19T08:12:09.836Z,43.55
2019-05-19T08:13:12.147Z,43.34
2019-05-19T08:14:14.479Z,43.51
2019-05-19T08:15:16.687Z,43.43
2019-05-19T08:16:18.942Z,43.75
2019-05-19T08:17:21.213Z,43.77
2019-05-19T08:18:23.493Z,43.84
2019-05-19T08:19:25.769Z,43.65
2019-05-19T08:20:28.065Z,43.7
2019-05-19T08:21:30.312Z,43.7
2019-05-19T08:22:32.587Z,43.63
2019-05-19T08:23:34.856Z,43.39
2019-05-19T08:24:37.140Z,43.48
2019-05-19T08:25:39.488Z,43.29
2019-05-19T08:26:41.682Z,43.62
2019-05-19T08:27:43.950Z,43.32
2019-05-19T08:28:46.222Z,43.2
2019-05-19T08:29:48.511Z,43.46
2019-05-19T08:30:50.766Z,43.43
2019-05-19T08:31:53.080Z,43.46
2019-05-19T08:32:55.315Z,43.39
2019-05-19T08:33:57.601Z,43.35
2019-05-19T08:34:59.849Z,43.37
2019-05-19T08:36:02.143Z,43.37
2019-05-19T08:37:04.437Z,43.37
2019-05-19T08:38:06.734Z,43.49
2019-05-19T08:39:08.954Z,43.53
2019-05-19T08:40:11.219Z,43.37
2019-05-19T08:41:13.510Z,43.46
2019-05-19T08:42:15.766Z,43.88
2019-05-19T08:43:18.040Z,45.08
2019-05-19T08:44:20.307Z,43.5
2019-05-19T08:45:22.592Z,43.27
2019-05-19T08:46:24.850Z,43.4
2019-05-19T08:47:27.139Z,43.07
2019-05-19T08:48:30.579Z,43.28
2019-05-19T08:49:31.724Z,43.24
2019-05-19T08:50:33.945Z,43.18
2019-05-19T08:51:36.207Z,43.02
2019-05-19T08:52:38.487Z,42.83
2019-05-19T08:53:40.761Z,43.11
2019-05-19T08:54:43.042Z,43.06
2019-05-19T08:55:45.402Z,43.16
2019-05-19T08:56:47.584Z,43.35
2019-05-19T08:57:49.862Z,43.2
2019-05-19T08:58:52.119Z,43.3
2019-05-19T08:59:54.390Z,43.46
2019-05-19T09:00:56.682Z,43.41
2019-05-19T09:01:58.941Z,43.2
2019-05-19T09:03:01.214Z,43.13
2019-05-19T09:04:03.482Z,43.21
2019-05-19T09:05:05.747Z,42.92
2019-05-19T09:06:08.030Z,43.18
2019-05-19T09:07:10.315Z,43.22
2019-05-19T09:08:12.584Z,42.83
2019-05-19T09:09:14.962Z,42.89
2019-05-19T09:10:17.126Z,43.03
2019-05-19T09:11:19.423Z,42.9
2019-05-19T09:12:21.740Z,42.88
2019-05-19T09:13:23.952Z,42.81
2019-05-19T09:14:26.207Z,43.04
2019-05-19T09:15:28.497Z,42.93
2019-05-19T09:16:30.763Z,42.9
2019-05-19T09:17:33.109Z,43.16
2019-05-19T09:18:35.299Z,43.06
2019-05-19T09:19:37.628Z,42.78
2019-05-19T09:20:39.916Z,42.77
2019-05-19T09:21:42.137Z,42.56
2019-05-19T09:22:44.407Z,42.61
2019-05-19T09:23:46.687Z,42.61
2019-05-19T09:24:48.959Z,42.37
2019-05-19T09:25:51.240Z,42.58
2019-05-19T09:26:53.508Z,42.38
2019-05-19T09:27:55.768Z,42.44
2019-05-19T09:28:58.089Z,42.49
2019-05-19T09:30:00.312Z,42.44
2019-05-19T09:31:02.599Z,42.3
2019-05-19T09:32:04.853Z,42.51
2019-05-19T09:33:07.130Z,42.26
2019-05-19T09:34:09.467Z,42.3
2019-05-19T09:35:11.676Z,42.14
2019-05-19T09:36:14.032Z,42.22
2019-05-19T09:37:16.330Z,42.01
2019-05-19T09:38:18.491Z,42.06
2019-05-19T09:39:20.764Z,42.06
2019-05-19T09:40:23.130Z,42.22
2019-05-19T09:41:25.349Z,42.28
2019-05-19T09:42:27.589Z,42.04
2019-05-19T09:43:29.862Z,42.37
2019-05-19T09:44:32.144Z,42.28
2019-05-19T09:45:34.388Z,42.25
2019-05-19T09:46:36.716Z,42.25
2019-05-19T09:47:39.000Z,42.31
2019-05-19T09:48:41.278Z,42.37
2019-05-19T09:49:43.544Z,42.31
2019-05-19T09:50:45.813Z,42.25
2019-05-19T09:51:48.171Z,42.47
2019-05-19T09:52:50.355Z,42.54
2019-05-19T09:53:52.677Z,42.38
2019-05-19T09:55:57.170Z,42.76
2019-05-19T09:56:59.445Z,43.19
2019-05-19T09:58:01.710Z,43.21
2019-05-19T09:59:03.987Z,43.79
2019-05-19T10:00:06.346Z,43.26
2019-05-19T10:01:08.626Z,43.32
2019-05-19T10:02:11.169Z,44.22
2019-05-19T10:03:13.219Z,43.89
2019-05-19T10:04:15.482Z,42.94
2019-05-19T10:05:17.766Z,43.31
2019-05-19T10:06:20.037Z,42.89
2019-05-19T10:07:22.302Z,42.9
2019-05-19T10:08:24.574Z,42.82
2019-05-19T10:09:26.853Z,42.57
2019-05-19T10:10:29.118Z,42.65
2019-05-19T10:11:31.390Z,42.66
2019-05-19T10:12:33.672Z,42.4
2019-05-19T10:13:35.949Z,42.46
2019-05-19T10:14:38.224Z,42.53
2019-05-19T10:15:40.491Z,42.47
2019-05-19T10:16:42.746Z,42.4
2019-05-19T10:17:45.024Z,42.35
2019-05-19T10:18:47.301Z,42.34
2019-05-19T10:19:49.582Z,42.35
2019-05-19T10:20:51.880Z,42.28
2019-05-19T10:21:54.121Z,42.31
2019-05-19T10:22:56.379Z,42.34
2019-05-19T10:23:58.676Z,42.01
2019-05-19T10:25:00.970Z,42.11
2019-05-19T10:26:03.210Z,42.01
2019-05-19T10:27:05.477Z,42.8
2019-05-19T10:28:07.781Z,43.44
2019-05-19T10:29:10.018Z,43.63
2019-05-19T10:30:12.332Z,44.39
2019-05-19T10:31:14.563Z,45.27
2019-05-19T10:32:16.843Z,45.24
2019-05-19T10:33:19.111Z,44.68
2019-05-19T10:34:21.424Z,44.21
2019-05-19T10:35:23.659Z,43.83
2019-05-19T10:36:25.932Z,43.65
2019-05-19T10:37:28.211Z,43.26
2019-05-19T10:38:30.546Z,42.97
2019-05-19T10:39:32.752Z,42.93
2019-05-19T10:40:35.026Z,42.37
2019-05-19T10:41:37.402Z,42.6
2019-05-19T10:42:39.614Z,42.23
2019-05-19T10:43:41.841Z,43
2019-05-19T10:44:44.206Z,42.55
2019-05-19T10:45:46.471Z,42.05
2019-05-19T10:46:48.654Z,41.95
2019-05-19T10:47:50.940Z,42.05
2019-05-19T10:48:53.207Z,42.17
2019-05-19T10:49:55.567Z,42.05
2019-05-19T10:50:57.761Z,42.01
2019-05-19T10:52:00.031Z,42.15
2019-05-19T10:53:02.316Z,42.1
2019-05-19T10:54:04.574Z,43.13
2019-05-19T10:55:07.148Z,43.59
2019-05-19T10:56:09.119Z,43.52
2019-05-19T10:57:11.483Z,43.83
2019-05-19T10:58:13.696Z,43.84
2019-05-19T10:59:15.946Z,43.87
2019-05-19T11:00:18.335Z,43.98
2019-05-19T11:01:20.497Z,44.14
2019-05-19T11:02:22.784Z,44.09
2019-05-19T11:03:25.033Z,44.34
2019-05-19T11:04:27.313Z,44.29
2019-05-19T11:05:29.582Z,44.78
2019-05-19T11:06:31.936Z,45.26
2019-05-19T11:07:34.131Z,45.11
2019-05-19T11:08:36.471Z,44.99
